Time;durP1;ratioP1;P1;durP2;ratioP2;P2;SDS_P1;SDS_P2;PMS_P1;PMS_P2;Temp;Humidity;BMP_temperature;BMP_pressure;BME280_temperature;BME280_humidity;BME280_pressure;Samples;Min_cycle;Max_cycle;Signal;HPM_P1;HPM_P2
2021/03/02 00:01:07;;;;;;;64.10;32.00;;;;;;;4.17;75.43;101599.19;5099207;28;20044;-56
2021/03/02 00:03:33;;;;;;;58.20;32.13;;;;;;;4.20;75.46;101601.00;5080913;28;20048;-56
2021/03/02 00:06:02;;;;;;;57.55;31.38;;;;;;;4.22;75.24;101597.59;5098906;28;20097;-56
2021/03/02 00:08:28;;;;;;;52.45;29.83;;;;;;;4.15;75.48;101602.56;5098769;28;20063;-56
2021/03/02 00:11:04;;;;;;;53.83;30.80;;;;;;;4.11;75.34;101595.53;5097840;28;20398;-56
2021/03/02 00:13:30;;;;;;;50.97;28.48;;;;;;;4.09;75.94;101600.66;5097493;28;20048;-56
2021/03/02 00:15:57;;;;;;;58.03;32.03;;;;;;;4.10;75.69;101592.06;5098370;28;20086;-56
2021/03/02 00:18:24;;;;;;;54.25;29.58;;;;;;;4.13;75.66;101597.34;5097638;28;20042;-56
2021/03/02 00:20:59;;;;;;;50.97;30.15;;;;;;;4.10;75.70;101598.97;5080586;28;20036;-56
2021/03/02 00:23:26;;;;;;;50.72;29.17;;;;;;;4.09;76.10;101600.66;5097387;28;20062;-56
2021/03/02 00:25:55;;;;;;;50.55;29.45;;;;;;;4.15;75.68;101602.56;5098420;28;20101;-56
2021/03/02 00:28:21;;;;;;;57.72;32.17;;;;;;;3.95;76.42;101601.97;5097272;28;20062;-56
2021/03/02 00:30:48;;;;;;;56.22;29.17;;;;;;;3.94;76.68;101601.09;5098366;28;20387;-56
2021/03/02 00:33:13;;;;;;;48.17;28.15;;;;;;;4.00;76.66;101597.81;5098086;28;20036;-56
2021/03/02 00:35:39;;;;;;;52.08;27.67;;;;;;;4.04;76.59;101601.38;5097694;28;20036;-56
2021/03/02 00:38:05;;;;;;;49.13;27.17;;;;;;;4.09;76.26;101599.78;5098554;28;20044;-48
2021/03/02 00:40:31;;;;;;;47.15;28.88;;;;;;;4.10;76.40;101605.03;5097017;28;20036;-48
2021/03/02 00:42:57;;;;;;;47.92;27.05;;;;;;;4.04;76.67;101599.66;5097873;28;20052;-48
2021/03/02 00:45:23;;;;;;;53.83;28.33;;;;;;;4.09;76.22;101597.19;5098049;28;20055;-48
2021/03/02 00:47:50;;;;;;;50.63;27.98;;;;;;;4.09;76.38;101594.59;5096606;28;20036;-48
2021/03/02 00:50:16;;;;;;;49.50;28.98;;;;;;;4.06;76.43;101592.78;5097110;28;20052;-48
2021/03/02 00:52:42;;;;;;;49.30;28.70;;;;;;;4.07;76.50;101597.16;5096665;28;20441;-48
2021/03/02 00:55:08;;;;;;;45.58;27.60;;;;;;;4.05;76.63;101596.22;5097612;28;20054;-48
2021/03/02 00:57:34;;;;;;;53.70;27.77;;;;;;;4.09;76.32;101594.59;5080081;28;20056;-48
2021/03/02 01:00:03;;;;;;;55.13;30.92;;;;;;;4.12;76.09;101595.56;5080139;28;20047;-56
2021/03/02 01:02:29;;;;;;;48.10;28.50;;;;;;;4.09;76.54;101590.28;5097492;28;20121;-56
2021/03/02 01:04:55;;;;;;;49.60;28.50;;;;;;;4.01;76.93;101586.59;5097284;28;20056;-56
2021/03/02 01:07:21;;;;;;;55.30;31.02;;;;;;;4.06;76.48;101582.41;5097341;28;20044;-56
2021/03/02 01:09:47;;;;;;;51.05;28.05;;;;;;;4.03;76.91;101577.16;5097547;28;20056;-56
2021/03/02 01:12:14;;;;;;;46.33;27.48;;;;;;;4.02;76.92;101567.59;5079823;28;20035;-56
2021/03/02 01:14:43;;;;;;;49.30;28.50;;;;;;;4.05;76.79;101569.41;5097832;28;20040;-56
2021/03/02 01:17:09;;;;;;;48.47;27.17;;;;;;;4.02;76.89;101570.19;5079506;28;20097;-56
2021/03/02 01:19:35;;;;;;;49.03;27.17;;;;;;;4.05;76.81;101569.41;5097474;28;20051;-56
2021/03/02 01:22:01;;;;;;;48.05;27.13;;;;;;;4.06;77.06;101564.25;5079661;28;20122;-56
2021/03/02 01:24:27;;;;;;;49.78;27.95;;;;;;;4.00;77.11;101561.50;5097086;28;20494;-56
2021/03/02 01:26:53;;;;;;;48.33;26.65;;;;;;;4.05;77.14;101561.63;5079345;28;20075;-56
2021/03/02 01:29:18;;;;;;;46.20;25.75;;;;;;;4.04;77.17;101560.75;5097242;28;20043;-56
2021/03/02 01:31:44;;;;;;;45.17;25.17;;;;;;;4.07;77.00;101558.25;5096908;28;20117;-56
2021/03/02 01:34:10;;;;;;;44.30;26.20;;;;;;;4.11;76.63;101560.09;5096252;28;20056;-56
2021/03/02 01:36:36;;;;;;;45.45;25.63;;;;;;;4.11;76.92;101552.31;5097137;28;20075;-56
2021/03/02 01:39:02;;;;;;;49.40;27.30;;;;;;;4.12;76.76;101548.00;5097045;28;20329;-56
2021/03/02 01:41:28;;;;;;;41.47;24.35;;;;;;;4.07;76.91;101547.88;5097054;28;20135;-56
2021/03/02 01:43:54;;;;;;;49.60;26.75;;;;;;;4.10;76.95;101542.78;5097317;28;20411;-56
2021/03/02 01:46:19;;;;;;;54.30;28.80;;;;;;;4.10;76.82;101540.19;5096666;28;20048;-56
2021/03/02 01:48:45;;;;;;;45.53;25.02;;;;;;;4.08;76.63;101539.25;5095837;28;20036;-56
2021/03/02 01:51:11;;;;;;;46.50;25.23;;;;;;;4.03;77.03;101534.75;5096886;28;20408;-56
2021/03/02 01:53:37;;;;;;;48.47;27.77;;;;;;;4.06;77.04;101533.13;5096403;28;20056;-56
2021/03/02 01:56:03;;;;;;;54.17;27.17;;;;;;;4.02;77.06;101531.28;5078859;28;20043;-56
2021/03/02 01:58:29;;;;;;;50.78;28.13;;;;;;;4.00;77.29;101525.19;5095815;28;20048;-56
2021/03/02 02:00:59;;;;;;;46.10;26.73;;;;;;;4.06;77.10;101533.13;5096696;28;20055;-56
2021/03/02 02:03:33;;;;;;;46.40;25.30;;;;;;;4.03;77.03;101535.66;5078836;28;20044;-56
2021/03/02 02:06:02;;;;;;;43.10;24.55;;;;;;;4.06;76.94;101534.84;5097003;28;20040;-56
2021/03/02 02:08:34;;;;;;;48.08;25.95;;;;;;;4.06;76.80;101535.72;5096595;28;20143;-56
2021/03/02 02:11:02;;;;;;;48.60;26.58;;;;;;;4.01;77.17;101529.53;5095945;28;20452;-56
2021/03/02 02:13:38;;;;;;;49.13;26.92;;;;;;;4.01;77.08;101528.66;5095637;28;20052;-56
2021/03/02 02:16:07;;;;;;;49.90;26.95;;;;;;;3.95;77.62;101527.63;5079688;28;20044;-56
2021/03/02 02:18:33;;;;;;;50.03;27.42;;;;;;;3.96;77.53;101523.34;5095304;28;20514;-56
2021/03/02 02:21:08;;;;;;;57.03;29.02;;;;;;;4.01;76.98;101526.94;5096463;28;20048;-56
2021/03/02 02:23:34;;;;;;;45.72;25.65;;;;;;;3.92;77.83;101530.16;5096441;28;20105;-56
2021/03/02 02:26:14;;;;;;;53.17;29.02;;;;;;;3.90;77.68;101516.28;5096109;28;20048;-56
2021/03/02 02:28:40;;;;;;;43.75;24.88;;;;;;;3.89;78.28;101521.41;5095643;28;20075;-56
2021/03/02 02:31:06;;;;;;;48.13;24.70;;;;;;;3.90;78.22;101505.91;5095512;28;20437;-56
2021/03/02 02:33:34;;;;;;;44.55;25.13;;;;;;;3.92;78.10;101512.00;5095400;28;20064;-56
2021/03/02 02:36:01;;;;;;;51.85;26.80;;;;;;;3.92;78.14;101512.00;5096296;28;20044;-56
2021/03/02 02:38:27;;;;;;;48.92;27.63;;;;;;;3.91;78.42;101511.97;5096081;28;20047;-56
2021/03/02 02:40:52;;;;;;;44.72;24.92;;;;;;;3.92;78.05;101505.94;5095183;28;20040;-56
2021/03/02 02:43:18;;;;;;;51.35;27.40;;;;;;;3.94;78.25;101504.28;5095715;28;20097;-56
2021/03/02 02:45:45;;;;;;;43.28;24.92;;;;;;;3.96;78.17;101506.09;5078597;28;20479;-56
2021/03/02 02:48:11;;;;;;;48.38;26.95;;;;;;;3.95;78.12;101506.03;5078537;28;20052;-56
2021/03/02 02:50:37;;;;;;;48.20;26.30;;;;;;;3.94;78.15;101496.50;5095902;28;20052;-55
2021/03/02 02:53:03;;;;;;;52.85;29.33;;;;;;;3.93;78.11;101499.91;5078162;28;20101;-56
2021/03/02 02:55:47;;;;;;;49.03;28.00;;;;;;;3.96;78.17;101503.50;5095289;28;20047;-56
2021/03/02 02:58:14;;;;;;;57.15;31.00;;;;;;;3.88;78.36;101499.78;5080565;28;20064;-56
2021/03/02 03:00:40;;;;;;;51.67;28.08;;;;;;;3.93;78.06;101500.81;5078524;28;20048;-56
2021/03/02 03:03:11;;;;;;;49.08;27.17;;;;;;;3.97;78.17;101505.25;5078305;28;20051;-55
2021/03/02 03:05:38;;;;;;;56.70;30.33;;;;;;;3.95;78.47;101506.03;5079027;28;20056;-56
2021/03/02 03:08:26;;;;;;;55.35;30.20;;;;;;;3.89;78.32;101504.13;5078576;28;20141;-56
2021/03/02 03:10:52;;;;;;;52.70;29.80;;;;;;;3.80;78.96;101502.97;5099670;28;20051;-56
2021/03/02 03:13:19;;;;;;;58.13;29.98;;;;;;;3.88;78.40;101504.97;5082099;28;20044;-56
2021/03/02 03:15:47;;;;;;;51.25;28.55;;;;;;;3.85;78.38;101501.41;5099802;28;20048;-56
2021/03/02 03:18:13;;;;;;;56.42;30.13;;;;;;;3.87;78.23;101512.72;5098905;28;20044;-56
2021/03/02 03:20:39;;;;;;;50.10;27.42;;;;;;;3.86;78.37;101510.94;5065174;28;20051;-56
2021/03/02 03:23:04;;;;;;;55.95;27.50;;;;;;;3.82;78.65;101509.09;5099717;28;20052;-56
2021/03/02 03:25:32;;;;;;;60.25;31.10;;;;;;;3.92;78.49;101508.53;5098561;28;20519;-56
2021/03/02 03:27:59;;;;;;;57.58;30.05;;;;;;;3.88;78.51;101509.28;5098493;28;20387;-56
2021/03/02 03:30:25;;;;;;;55.83;31.52;;;;;;;3.86;78.56;101510.94;5098397;28;20097;-56
2021/03/02 03:32:58;;;;;;;59.38;31.40;;;;;;;3.87;78.33;101512.72;5049010;28;20044;-56
2021/03/02 03:35:24;;;;;;;59.22;31.45;;;;;;;3.80;78.50;101516.81;5098603;28;20055;-56
2021/03/02 03:37:50;;;;;;;58.65;29.92;;;;;;;3.81;78.75;101516.00;5099390;28;20048;-56
2021/03/02 03:40:16;;;;;;;59.05;30.75;;;;;;;3.78;78.85;101521.09;5098511;28;20052;-56
2021/03/02 03:42:42;;;;;;;59.95;31.05;;;;;;;3.79;78.67;101525.44;5098446;28;20463;-56
2021/03/02 03:45:08;;;;;;;60.20;31.50;;;;;;;3.83;78.74;101522.09;5099251;28;20048;-55
2021/03/02 03:47:34;;;;;;;66.50;32.75;;;;;;;3.74;79.20;101527.91;5099504;28;20040;-56
2021/03/02 03:50:00;;;;;;;60.65;31.75;;;;;;;3.67;79.59;101523.38;5098318;28;20063;-56
2021/03/02 03:52:26;;;;;;;53.90;30.05;;;;;;;3.71;79.44;101516.56;5098023;28;20454;-56
2021/03/02 03:54:53;;;;;;;58.28;31.25;;;;;;;3.72;79.27;101519.19;5098777;28;20044;-56
2021/03/02 03:57:19;;;;;;;58.97;31.63;;;;;;;3.69;79.38;101515.63;5081328;28;20048;-56
2021/03/02 03:59:44;;;;;;;60.45;32.33;;;;;;;3.67;79.63;101515.59;5098109;28;20059;-56
2021/03/02 04:02:10;;;;;;;62.22;30.55;;;;;;;3.64;79.67;101510.31;5081277;28;20048;-56
2021/03/02 04:04:37;;;;;;;62.45;32.40;;;;;;;3.62;79.73;101513.69;5097601;28;20357;-56
2021/03/02 04:07:02;;;;;;;65.18;32.00;;;;;;;3.62;80.09;101506.78;5080819;28;20051;-56
2021/03/02 04:09:28;;;;;;;69.40;34.20;;;;;;;3.68;79.70;101519.06;5098556;28;20066;-56
2021/03/02 04:11:55;;;;;;;67.07;33.40;;;;;;;3.70;79.46;101517.38;5097645;28;20040;-56
2021/03/02 04:14:20;;;;;;;62.97;32.65;;;;;;;3.67;79.78;101522.47;5098691;28;20044;-56
2021/03/02 04:16:46;;;;;;;62.15;31.58;;;;;;;3.62;79.87;101509.38;5098317;28;20070;-56
2021/03/02 04:19:12;;;;;;;56.80;29.30;;;;;;;3.68;79.93;101512.16;5098289;28;20052;-56
2021/03/02 04:21:38;;;;;;;63.78;30.88;;;;;;;3.63;80.15;101497.31;5080207;28;20075;-55
2021/03/02 04:24:04;;;;;;;59.25;29.08;;;;;;;3.65;80.20;101501.72;5098809;28;20079;-55
2021/03/02 04:26:30;;;;;;;58.33;30.30;;;;;;;3.64;80.03;101501.66;5098750;28;20093;-56
2021/03/02 04:28:55;;;;;;;55.42;28.77;;;;;;;3.68;80.08;101504.41;5098397;28;20048;-56
2021/03/02 04:31:21;;;;;;;65.70;33.10;;;;;;;3.69;79.88;101508.72;5098373;28;20101;-56
2021/03/02 04:33:47;;;;;;;63.67;33.33;;;;;;;3.64;79.77;101505.16;5098271;28;20374;-56
2021/03/02 04:36:13;;;;;;;65.68;31.08;;;;;;;3.64;80.10;101496.47;5098253;28;20044;-56
2021/03/02 04:38:39;;;;;;;59.40;28.17;;;;;;;3.64;80.05;101496.47;5097342;28;20059;-56
2021/03/02 04:41:04;;;;;;;65.82;32.67;;;;;;;3.63;79.87;101499.91;5097848;28;20063;-56
2021/03/02 04:43:30;;;;;;;62.08;29.15;;;;;;;3.56;80.01;101495.38;5098357;28;20047;-56
2021/03/02 04:45:56;;;;;;;56.53;30.08;;;;;;;3.60;79.89;101492.03;5098082;28;20052;-56
2021/03/02 04:48:22;;;;;;;61.03;29.33;;;;;;;3.60;79.77;101495.50;5097164;28;20411;-56
2021/03/02 04:50:47;;;;;;;52.58;27.50;;;;;;;3.59;80.06;101504.09;5097923;28;20056;-56
2021/03/02 04:53:13;;;;;;;65.20;28.65;;;;;;;3.62;79.88;101509.38;5097866;28;20156;-55
2021/03/02 04:55:39;;;;;;;56.53;29.80;;;;;;;3.55;80.07;101504.84;5097599;28;20044;-56
2021/03/02 04:58:05;;;;;;;58.50;27.42;;;;;;;3.51;80.25;101501.28;5097802;28;20048;-55
2021/03/02 05:00:31;;;;;;;57.28;27.25;;;;;;;3.47;80.49;101502.00;5096613;28;20097;-55
2021/03/02 05:02:56;;;;;;;61.35;28.25;;;;;;;3.54;80.29;101505.66;5097512;28;20044;-56
2021/03/02 05:05:22;;;;;;;66.78;30.15;;;;;;;3.55;79.85;101502.28;5097820;28;20064;-56
2021/03/02 05:07:48;;;;;;;73.85;31.55;;;;;;;3.45;80.43;101495.94;5097485;28;20040;-56
2021/03/02 05:10:14;;;;;;;64.10;29.98;;;;;;;3.45;80.79;101502.81;5097321;28;20036;-56
2021/03/02 05:12:39;;;;;;;62.58;31.05;;;;;;;3.40;80.74;101500.06;5096279;28;20043;-55
2021/03/02 05:15:06;;;;;;;73.72;30.75;;;;;;;3.44;80.87;101499.31;5097480;28;20055;-56
2021/03/02 05:17:32;;;;;;;64.20;29.58;;;;;;;3.43;80.97;101501.88;5097511;28;20044;-56
2021/03/02 05:19:57;;;;;;;58.67;28.48;;;;;;;3.40;81.06;101502.66;5097428;28;20063;-56
2021/03/02 05:22:23;;;;;;;67.05;30.08;;;;;;;3.41;81.47;101490.59;5096289;28;20489;-56
2021/03/02 05:24:49;;;;;;;81.88;35.42;;;;;;;3.39;81.24;101494.84;5096401;28;20048;-56
2021/03/02 05:27:15;;;;;;;93.55;31.95;;;;;;;3.38;81.60;101490.50;5097590;28;20347;-56
2021/03/02 05:29:41;;;;;;;82.70;33.58;;;;;;;3.28;81.70;101497.09;5097278;28;20043;-56
2021/03/02 05:32:06;;;;;;;81.60;33.42;;;;;;;3.38;81.46;101493.06;5096899;28;20383;-56
2021/03/02 05:34:32;;;;;;;103.65;34.53;;;;;;;3.34;81.73;101488.63;5096466;28;20040;-56
2021/03/02 05:36:58;;;;;;;76.38;32.53;;;;;;;3.34;81.82;101493.81;5096888;28;20039;-56
2021/03/02 05:39:24;;;;;;;86.72;33.88;;;;;;;3.40;81.61;101489.72;5095909;28;20047;-56
2021/03/02 05:41:50;;;;;;;83.85;35.25;;;;;;;3.32;82.06;101501.56;5097007;28;20044;-56
2021/03/02 05:44:15;;;;;;;97.00;29.88;;;;;;;3.37;82.06;101512.94;5096124;28;20113;-56
2021/03/02 05:46:41;;;;;;;66.70;26.70;;;;;;;3.30;81.92;101520.47;5096847;28;20402;-56
2021/03/02 05:49:09;;;;;;;66.93;26.50;;;;;;;3.30;82.30;101515.28;5096910;28;20063;-56
2021/03/02 05:51:36;;;;;;;75.65;30.00;;;;;;;3.35;82.26;101508.53;5096626;28;20039;-56
2021/03/02 05:54:01;;;;;;;73.43;29.20;;;;;;;3.35;81.73;101504.25;5095928;28;20194;-56
2021/03/02 05:56:27;;;;;;;84.13;28.70;;;;;;;3.33;81.85;101508.50;5095991;28;20439;-56
2021/03/02 05:58:53;;;;;;;74.32;28.42;;;;;;;3.42;81.80;101520.88;5095938;28;20369;-56
2021/03/02 06:01:19;;;;;;;75.57;27.55;;;;;;;3.25;82.00;101518.63;5096699;28;20349;-55
2021/03/02 06:03:45;;;;;;;102.93;33.20;;;;;;;3.34;82.20;101512.81;5078546;28;20058;-55
2021/03/02 06:06:10;;;;;;;78.32;34.08;;;;;;;3.32;82.12;101516.22;5096635;28;20079;-55
2021/03/02 06:08:36;;;;;;;93.05;32.72;;;;;;;3.32;81.86;101517.09;5095772;28;20048;-56
2021/03/02 06:11:24;;;;;;;90.10;30.20;;;;;;;3.27;81.77;101513.47;5096352;28;20044;-56
2021/03/02 06:13:50;;;;;;;85.85;29.63;;;;;;;3.24;82.05;101514.25;5096365;28;20048;-56
2021/03/02 06:16:16;;;;;;;134.18;30.88;;;;;;;3.25;82.18;101513.44;5095371;28;20047;-56
2021/03/02 06:18:52;;;;;;;71.40;30.10;;;;;;;3.31;82.10;101502.38;5095651;28;20052;-56
2021/03/02 06:21:19;;;;;;;127.88;31.90;;;;;;;3.34;81.99;101506.78;5095651;28;20059;-56
2021/03/02 06:23:54;;;;;;;101.95;30.50;;;;;;;3.28;82.08;101510.03;5096218;28;20047;-56
2021/03/02 06:26:24;;;;;;;90.60;27.45;;;;;;;3.23;82.61;101502.16;5096501;28;20101;-56
2021/03/02 06:28:57;;;;;;;81.25;25.77;;;;;;;3.22;82.41;101510.75;5095261;28;20441;-56
2021/03/02 06:31:44;;;;;;;120.75;27.77;;;;;;;3.19;82.63;101518.41;5096259;28;20055;-56
2021/03/02 06:34:13;;;;;;;129.35;28.55;;;;;;;3.24;82.89;101529.78;5096304;28;20052;-56
2021/03/02 06:36:57;;;;;;;88.18;28.42;;;;;;;3.28;82.76;101523.00;5096195;28;20425;-56
2021/03/02 06:39:24;;;;;;;91.78;26.35;;;;;;;3.23;83.00;101515.09;5096504;28;20063;-56
2021/03/02 06:42:12;;;;;;;104.43;27.98;;;;;;;3.31;82.89;101511.84;5095430;28;20044;-56
2021/03/02 06:44:38;;;;;;;124.03;26.10;;;;;;;3.27;82.71;101521.25;5097298;28;20051;-56
2021/03/02 06:47:04;;;;;;;134.27;27.38;;;;;;;3.28;82.80;101520.41;5099511;28;20325;-56
2021/03/02 06:49:41;;;;;;;125.65;28.90;;;;;;;3.30;82.69;101516.16;5099207;28;20087;-56
2021/03/02 06:52:14;;;;;;;74.05;27.08;;;;;;;3.29;82.70;101514.41;5100086;28;20041;-56
2021/03/02 06:54:40;;;;;;;118.75;27.63;;;;;;;3.28;83.08;101512.63;5099874;28;20048;-56
2021/03/02 06:57:06;;;;;;;116.80;29.17;;;;;;;3.27;83.59;101516.94;5099933;28;20051;-56
2021/03/02 06:59:31;;;;;;;101.03;27.58;;;;;;;3.32;83.80;101504.16;5100152;28;20055;-56
2021/03/02 07:01:58;;;;;;;75.65;28.15;;;;;;;3.40;83.63;101506.97;5099797;28;20463;-56
2021/03/02 07:04:27;;;;;;;90.90;29.95;;;;;;;3.42;83.44;101510.50;5099611;28;20056;-56
2021/03/02 07:07:01;;;;;;;67.68;22.50;;;;;;;3.40;83.48;101512.16;5099762;28;20063;-56
2021/03/02 07:09:27;;;;;;;61.65;24.50;;;;;;;3.46;82.70;101514.94;5100069;28;20048;-56
2021/03/02 07:11:56;;;;;;;104.20;24.90;;;;;;;3.50;82.46;101516.78;5082304;28;20136;-56
2021/03/02 07:14:24;;;;;;;78.95;23.30;;;;;;;3.46;82.46;101513.22;5098978;28;20070;-56
2021/03/02 07:16:50;;;;;;;54.40;22.25;;;;;;;3.50;82.26;101511.59;5097501;28;20047;-56
2021/03/02 07:19:20;;;;;;;56.10;22.02;;;;;;;3.57;82.32;101510.06;5088371;28;20047;-56
2021/03/02 07:21:50;;;;;;;51.97;21.67;;;;;;;3.57;82.51;101516.13;5098953;28;20054;-56
2021/03/02 07:24:18;;;;;;;59.53;22.67;;;;;;;3.61;82.68;101511.94;5099504;28;20048;-56
2021/03/02 07:26:45;;;;;;;104.32;25.83;;;;;;;3.66;82.71;101502.56;5099393;28;20044;-56
2021/03/02 07:29:11;;;;;;;76.53;33.50;;;;;;;3.73;82.43;101512.28;5099601;28;20446;-56
2021/03/02 07:31:37;;;;;;;133.02;43.17;;;;;;;3.65;82.60;101511.19;5099529;28;20044;-56
2021/03/02 07:34:07;;;;;;;90.90;27.42;;;;;;;3.77;82.83;101521.03;5098526;28;20058;-56
2021/03/02 07:36:35;;;;;;;82.68;28.55;;;;;;;3.78;82.33;101517.63;5098583;28;20058;-56
2021/03/02 07:39:14;;;;;;;95.45;28.05;;;;;;;3.81;81.96;101516.00;5098454;28;20058;-56
2021/03/02 07:41:40;;;;;;;56.58;25.10;;;;;;;3.87;82.48;101515.31;5099303;28;20209;-56
2021/03/02 07:44:06;;;;;;;77.43;27.20;;;;;;;3.92;82.02;101509.41;5099246;28;20047;-56
2021/03/02 07:46:41;;;;;;;68.53;26.05;;;;;;;4.05;82.07;101515.81;5098368;28;20322;-56
2021/03/02 07:49:22;;;;;;;75.65;25.25;;;;;;;4.10;81.66;101515.97;5099180;28;20055;-56
2021/03/02 07:51:57;;;;;;;78.43;25.58;;;;;;;4.13;81.87;101521.25;5099205;28;20562;-56
2021/03/02 07:54:23;;;;;;;54.58;23.85;;;;;;;4.14;82.22;101531.66;5099076;28;20062;-56
2021/03/02 07:56:48;;;;;;;64.20;26.55;;;;;;;4.27;81.94;101529.41;5096820;28;20048;-56
2021/03/02 07:59:15;;;;;;;59.42;26.33;;;;;;;4.28;81.53;101537.22;5098105;28;20076;-56
2021/03/02 08:01:41;;;;;;;47.00;22.65;;;;;;;4.37;81.17;101542.66;5098925;28;20048;-56
2021/03/02 08:04:15;;;;;;;57.63;22.92;;;;;;;4.49;80.17;101542.13;5098575;28;20079;-56
2021/03/02 08:06:42;;;;;;;55.10;22.70;;;;;;;4.56;80.10;101538.00;5098847;28;20344;-56
2021/03/02 08:09:30;;;;;;;61.35;23.10;;;;;;;4.55;79.68;101538.81;5098741;28;20060;-56
2021/03/02 08:12:34;;;;;;;42.38;23.80;;;;;;;4.61;79.21;101526.88;5098190;28;20060;-56
2021/03/02 08:15:22;;;;;;;45.83;24.10;;;;;;;4.56;79.78;101536.28;5098367;28;20352;-56
2021/03/02 08:17:48;;;;;;;47.08;23.45;;;;;;;4.73;79.84;101535.84;5098609;28;20060;-56
2021/03/02 08:20:14;;;;;;;48.53;23.95;;;;;;;4.82;79.42;101528.28;5097594;28;20464;-56
2021/03/02 08:22:43;;;;;;;41.90;22.83;;;;;;;4.89;79.25;101531.06;5098197;28;20070;-56
2021/03/02 08:25:27;;;;;;;63.72;24.83;;;;;;;4.95;78.30;101532.09;5098417;28;20060;-56
2021/03/02 08:27:57;;;;;;;45.05;22.20;;;;;;;4.97;78.81;101530.38;5097611;28;20074;-56
2021/03/02 08:30:27;;;;;;;42.53;22.30;;;;;;;5.13;77.92;101537.72;5098129;28;20158;-56
2021/03/02 08:32:54;;;;;;;51.75;22.80;;;;;;;5.04;77.93;101540.97;5098245;28;20044;-49
2021/03/02 08:35:25;;;;;;;47.38;22.83;;;;;;;5.14;77.55;101545.56;5098291;28;20075;-48
2021/03/02 08:37:53;;;;;;;55.13;24.00;;;;;;;5.20;77.57;101547.44;5098312;28;20048;-56
2021/03/02 08:40:23;;;;;;;40.17;22.67;;;;;;;5.28;77.24;101545.00;5096920;28;20055;-56
2021/03/02 08:43:11;;;;;;;46.05;23.90;;;;;;;5.31;77.13;101545.97;5098183;28;20071;-56
2021/03/02 08:45:44;;;;;;;44.85;23.25;;;;;;;5.33;77.23;101539.09;5098349;28;20143;-56
2021/03/02 08:48:16;;;;;;;43.28;23.83;;;;;;;5.48;77.66;101535.09;5097500;28;20043;-56
2021/03/02 08:50:43;;;;;;;48.55;24.83;;;;;;;5.66;77.55;101534.63;5096914;28;20436;-56
2021/03/02 08:53:35;;;;;;;48.20;24.60;;;;;;;5.72;76.03;101537.34;5097553;28;20054;-56
2021/03/02 08:56:03;;;;;;;47.97;24.77;;;;;;;5.76;76.67;101542.66;5097934;28;20044;-57
2021/03/02 08:58:38;;;;;;;56.20;26.83;;;;;;;5.69;75.64;101542.47;5097512;28;20052;-56
2021/03/02 09:01:08;;;;;;;50.25;27.60;;;;;;;5.70;75.70;101539.06;5097821;28;20048;-56
2021/03/02 09:03:39;;;;;;;49.65;24.65;;;;;;;5.72;75.51;101526.94;5096445;28;20059;-56
2021/03/02 09:06:12;;;;;;;47.70;24.30;;;;;;;5.90;75.77;101534.28;5097430;28;20048;-57
2021/03/02 09:09:03;;;;;;;44.55;24.20;;;;;;;6.04;75.48;101541.56;5097450;28;20127;-56
2021/03/02 09:11:38;;;;;;;55.60;26.23;;;;;;;6.17;75.32;101539.22;5096761;28;20390;-56
2021/03/02 09:14:30;;;;;;;47.67;24.98;;;;;;;6.24;74.32;101536.78;5097542;28;20063;-57
2021/03/02 09:16:59;;;;;;;52.00;27.15;;;;;;;6.20;74.65;101529.72;5097554;28;20082;-57
2021/03/02 09:19:28;;;;;;;50.78;26.83;;;;;;;6.25;74.37;101533.31;5097192;28;20120;-57
2021/03/02 09:22:05;;;;;;;47.53;26.70;;;;;;;6.15;74.46;101538.31;5096241;28;20052;-57
2021/03/02 09:24:32;;;;;;;54.20;26.23;;;;;;;6.28;75.18;101538.59;5097478;28;20059;-57
2021/03/02 09:27:03;;;;;;;59.05;29.90;;;;;;;6.05;74.64;101539.84;5096286;28;20123;-57
2021/03/02 09:29:32;;;;;;;46.85;26.52;;;;;;;6.25;74.89;101535.06;5098133;28;20051;-57
2021/03/02 09:31:59;;;;;;;52.05;27.52;;;;;;;6.46;74.84;101543.25;5097258;28;20063;-57
2021/03/02 09:34:38;;;;;;;49.92;27.00;;;;;;;6.47;74.26;101552.84;5096738;28;20040;-57
2021/03/02 09:37:05;;;;;;;49.55;27.92;;;;;;;6.44;74.20;101550.19;5096840;28;20052;-57
2021/03/02 09:39:31;;;;;;;53.50;29.13;;;;;;;6.75;73.99;101553.34;5096820;28;20047;-57
2021/03/02 09:41:56;;;;;;;54.28;27.38;;;;;;;6.92;73.67;101561.47;5095941;28;20044;-57
2021/03/02 09:44:32;;;;;;;52.75;28.50;;;;;;;7.11;73.08;101550.50;5097115;28;20467;-57
2021/03/02 09:47:03;;;;;;;52.45;28.73;;;;;;;7.20;72.60;101555.88;5096973;28;20063;-57
2021/03/02 09:49:43;;;;;;;52.78;28.17;;;;;;;7.35;72.80;101550.03;5096192;28;20097;-57
2021/03/02 09:52:21;;;;;;;56.78;31.48;;;;;;;7.36;71.88;101541.38;5096910;28;20044;-57
2021/03/02 09:55:08;;;;;;;68.60;41.00;;;;;;;7.46;71.62;101538.03;5096513;28;20055;-58
2021/03/02 09:57:48;;;;;;;52.67;31.98;;;;;;;7.50;71.86;101545.03;5094580;28;20383;-58
2021/03/02 10:00:14;;;;;;;50.10;29.42;;;;;;;7.72;71.73;101546.25;5080297;28;20060;-57
2021/03/02 10:02:50;;;;;;;53.65;30.52;;;;;;;8.06;69.96;101548.41;5087253;28;20052;-57
2021/03/02 10:05:42;;;;;;;54.38;28.90;;;;;;;8.22;69.69;101549.50;5088747;28;20052;-57
2021/03/02 10:08:17;;;;;;;56.55;29.77;;;;;;;8.48;69.46;101549.81;5075503;28;20055;-58
2021/03/02 10:10:43;;;;;;;54.20;30.67;;;;;;;8.64;69.15;101550.03;5076230;28;20129;-58
2021/03/02 10:13:08;;;;;;;55.92;30.05;;;;;;;8.76;68.86;101544.03;5074605;28;20429;-58
2021/03/02 10:15:34;;;;;;;52.42;30.05;;;;;;;8.91;68.47;101548.56;5074594;28;20044;-58
2021/03/02 10:18:01;;;;;;;55.72;29.02;;;;;;;8.97;67.75;101535.53;5076305;28;20079;-58
2021/03/02 10:20:27;;;;;;;50.15;29.25;;;;;;;8.89;67.06;101539.81;5057992;28;20041;-58
2021/03/02 10:23:06;;;;;;;46.72;27.40;;;;;;;8.92;67.10;101545.06;5076013;28;20068;-58
2021/03/02 10:25:39;;;;;;;52.03;30.17;;;;;;;9.05;67.80;101544.31;5076254;28;20060;-58
2021/03/02 10:28:05;;;;;;;54.03;29.83;;;;;;;9.21;67.72;101545.31;5075973;28;20060;-58
2021/03/02 10:30:31;;;;;;;52.03;29.42;;;;;;;9.34;66.79;101539.31;5076177;28;20054;-58
2021/03/02 10:32:57;;;;;;;53.92;29.58;;;;;;;9.39;66.51;101535.84;5075359;28;20064;-59
2021/03/02 10:35:23;;;;;;;59.72;31.73;;;;;;;9.52;66.96;101532.44;5058580;28;20052;-59
2021/03/02 10:37:48;;;;;;;57.75;32.47;;;;;;;9.76;66.66;101540.47;5075536;28;20060;-59
2021/03/02 10:40:15;;;;;;;53.40;31.33;;;;;;;9.89;65.91;101535.31;5076390;28;20048;-59
2021/03/02 10:42:41;;;;;;;57.92;31.23;;;;;;;10.05;65.18;101531.88;5074961;28;20353;-59
2021/03/02 10:45:07;;;;;;;51.95;30.80;;;;;;;10.15;65.34;101519.72;5075314;28;20048;-59
2021/03/02 10:47:33;;;;;;;52.10;29.88;;;;;;;10.37;65.08;101526.81;5076046;28;20049;-60
2021/03/02 10:49:59;;;;;;;54.75;31.40;;;;;;;10.51;64.48;101527.72;5075928;28;20407;-59
2021/03/02 10:52:25;;;;;;;51.00;30.52;;;;;;;10.64;64.34;101528.59;5075428;28;20421;-59
2021/03/02 10:54:50;;;;;;;51.30;30.63;;;;;;;10.58;63.85;101531.22;5075593;28;20056;-60
2021/03/02 10:57:16;;;;;;;46.88;30.15;;;;;;;10.78;63.88;101528.63;5076238;28;20044;-60
2021/03/02 10:59:42;;;;;;;49.78;30.10;;;;;;;10.91;63.51;101530.38;5075595;28;20388;-60
2021/03/02 11:02:08;;;;;;;50.38;29.95;;;;;;;11.05;63.11;101522.56;5075904;28;20454;-60
2021/03/02 11:04:34;;;;;;;53.10;31.77;;;;;;;11.15;62.67;101512.94;5075544;28;20411;-60
2021/03/02 11:06:59;;;;;;;56.80;33.05;;;;;;;11.21;62.28;101513.81;5075829;28;20048;-60
2021/03/02 11:09:25;;;;;;;53.10;33.97;;;;;;;11.36;61.40;101509.41;5074637;28;20044;-60
2021/03/02 11:11:51;;;;;;;52.78;32.85;;;;;;;11.41;61.48;101508.53;5075492;28;20040;-60
2021/03/02 11:14:17;;;;;;;53.10;30.08;;;;;;;11.45;61.97;101501.53;5074484;28;20449;-60
2021/03/02 11:16:43;;;;;;;53.67;32.10;;;;;;;11.62;61.91;101501.47;5075750;28;20056;-60
2021/03/02 11:19:09;;;;;;;53.10;32.28;;;;;;;11.81;61.20;101499.69;5074514;28;20053;-60
2021/03/02 11:21:35;;;;;;;54.13;32.42;;;;;;;11.92;61.68;101503.16;5075755;28;20045;-60
2021/03/02 11:24:01;;;;;;;59.20;34.30;;;;;;;12.05;60.71;101501.34;5058134;28;20045;-59